Time;durP1;ratioP1;P1;durP2;ratioP2;P2;SDS_P1;SDS_P2;PMS_P1;PMS_P2;Temp;Humidity;BMP_temperature;BMP_pressure;BME280_temperature;BME280_humidity;BME280_pressure;Samples;Min_cycle;Max_cycle;Signal;HPM_P1;HPM_P2
2022/10/05 00:00:18;;;;;;;16.10;8.88;;;15.10;99.90;;;;;;5033832;28;20041;-67
2022/10/05 00:02:45;;;;;;;20.25;9.43;;;15.10;99.90;;;;;;5036248;28;20056;-66
2022/10/05 00:05:32;;;;;;;21.30;9.82;;;15.10;99.90;;;;;;5041879;28;20056;-66
2022/10/05 00:08:10;;;;;;;18.50;9.48;;;15.10;99.90;;;;;;5071578;28;20052;-65
2022/10/05 00:10:38;;;;;;;19.58;9.25;;;15.10;99.90;;;;;;5069943;28;20108;-66
2022/10/05 00:13:14;;;;;;;20.20;9.60;;;15.20;99.90;;;;;;5070086;28;20498;-66
2022/10/05 00:15:40;;;;;;;17.30;8.98;;;15.10;99.90;;;;;;5038073;28;20044;-65
2022/10/05 00:18:13;;;;;;;23.70;8.52;;;15.10;99.90;;;;;;5033825;28;20040;-65
2022/10/05 00:20:39;;;;;;;;;;;15.10;99.90;;;;;;5033622;28;20045;-65
2022/10/05 00:23:12;;;;;;;18.48;9.00;;;15.10;99.90;;;;;;5039330;28;20378;-67
2022/10/05 00:25:38;;;;;;;20.98;10.10;;;15.10;99.90;;;;;;5034687;28;20045;-66
2022/10/05 00:28:16;;;;;;;16.52;9.63;;;15.20;99.90;;;;;;5037849;28;20059;-67
2022/10/05 00:30:42;;;;;;;19.77;9.98;;;15.20;99.90;;;;;;5037804;28;20476;-67
2022/10/05 00:33:08;;;;;;;19.55;9.23;;;15.20;99.90;;;;;;5037168;28;20036;-66
2022/10/05 00:35:34;;;;;;;19.80;9.55;;;15.20;99.90;;;;;;5037847;28;20231;-65
2022/10/05 00:38:00;;;;;;;26.17;10.80;;;15.20;99.90;;;;;;5045477;28;20408;-65
2022/10/05 00:40:58;;;;;;;18.45;10.80;;;15.20;99.90;;;;;;5040651;28;20037;-66
2022/10/05 00:43:39;;;;;;;20.20;9.98;;;15.20;99.90;;;;;;5071700;28;20123;-66
2022/10/05 00:46:15;;;;;;;22.67;11.30;;;15.20;99.90;;;;;;5037015;28;20542;-66
2022/10/05 00:49:05;;;;;;;22.55;10.38;;;15.20;99.90;;;;;;5033988;28;20044;-65
2022/10/05 00:51:34;;;;;;;23.08;9.82;;;15.20;99.90;;;;;;5034001;28;20036;-65
2022/10/05 00:54:33;;;;;;;20.75;9.95;;;15.20;99.90;;;;;;5036453;28;20048;-65
2022/10/05 00:57:17;;;;;;;22.00;10.50;;;15.10;99.90;;;;;;5036245;28;20076;-65
2022/10/05 00:59:54;;;;;;;21.42;10.35;;;15.10;99.90;;;;;;5031585;28;20029;-66
2022/10/05 01:02:57;;;;;;;21.38;10.90;;;15.10;99.90;;;;;;5043481;28;20041;-65
2022/10/05 01:05:46;;;;;;;21.65;10.45;;;15.10;99.90;;;;;;5041351;28;20033;-65
2022/10/05 01:08:43;;;;;;;21.50;10.85;;;15.10;99.90;;;;;;5068345;28;20048;-67
2022/10/05 01:11:28;;;;;;;22.58;10.52;;;15.10;99.90;;;;;;5035544;28;20033;-66
2022/10/05 01:14:15;;;;;;;23.15;11.35;;;15.10;99.90;;;;;;5034845;28;20480;-66
2022/10/05 01:17:01;;;;;;;23.58;11.77;;;15.10;99.90;;;;;;5069659;28;20164;-64
2022/10/05 01:19:32;;;;;;;22.98;11.02;;;15.10;99.90;;;;;;5039400;28;20076;-65
2022/10/05 01:22:17;;;;;;;22.25;11.48;;;15.10;99.90;;;;;;5040541;28;20431;-66
2022/10/05 01:25:19;;;;;;;24.73;12.10;;;15.10;99.90;;;;;;5072218;28;20392;-65
2022/10/05 01:28:12;;;;;;;26.17;12.05;;;15.10;99.90;;;;;;5073239;28;20041;-65
2022/10/05 01:31:03;;;;;;;25.73;10.77;;;15.10;99.90;;;;;;5071390;28;20056;-65
2022/10/05 01:33:32;;;;;;;24.73;11.20;;;15.10;99.90;;;;;;5072267;28;20285;-65
2022/10/05 01:36:32;;;;;;;21.50;11.35;;;15.00;99.90;;;;;;5037732;28;20701;-66
2022/10/05 01:39:13;;;;;;;23.92;11.93;;;15.00;99.90;;;;;;5046523;28;20045;-65
2022/10/05 01:41:53;;;;;;;29.05;12.45;;;15.00;99.90;;;;;;5038048;28;20033;-64
2022/10/05 01:44:51;;;;;;;30.35;12.00;;;15.00;99.90;;;;;;5044182;28;20051;-65
2022/10/05 01:47:23;;;;;;;28.48;12.32;;;15.00;99.90;;;;;;5029163;28;20045;-65
2022/10/05 01:50:08;;;;;;;28.48;12.82;;;15.00;99.90;;;;;;5039119;28;20076;-66
2022/10/05 01:52:34;;;;;;;29.73;12.10;;;14.90;99.90;;;;;;5037663;28;20793;-66
2022/10/05 01:55:19;;;;;;;28.15;12.82;;;15.00;99.90;;;;;;5072014;28;20370;-66
2022/10/05 01:58:27;;;;;;;24.35;12.35;;;14.90;99.90;;;;;;5045428;28;20083;-65
2022/10/05 02:00:55;;;;;;;25.95;11.65;;;14.90;99.90;;;;;;5010051;28;20056;-65
2022/10/05 02:03:26;;;;;;;24.35;11.60;;;14.90;99.90;;;;;;5036176;28;20147;-65
2022/10/05 02:05:55;;;;;;;22.85;11.63;;;14.90;99.90;;;;;;5036379;28;20519;-66
2022/10/05 02:08:39;;;;;;;24.40;12.48;;;14.90;99.90;;;;;;5041072;28;20571;-65
2022/10/05 02:11:07;;;;;;;23.83;11.18;;;14.90;99.90;;;;;;5070116;28;20499;-65
2022/10/05 02:13:40;;;;;;;25.95;11.52;;;14.90;99.90;;;;;;5042079;28;20127;-67
2022/10/05 02:16:30;;;;;;;24.27;11.35;;;14.90;99.90;;;;;;5042583;28;20041;-65
2022/10/05 02:19:18;;;;;;;22.10;11.38;;;14.90;99.90;;;;;;5070777;28;20044;-65
2022/10/05 02:21:52;;;;;;;22.77;11.48;;;14.80;99.90;;;;;;5043102;28;20499;-66
2022/10/05 02:24:27;;;;;;;25.77;11.65;;;14.80;99.90;;;;;;5043584;28;20522;-65
2022/10/05 02:26:55;;;;;;;24.90;12.00;;;14.90;99.90;;;;;;5039115;28;20049;-65
2022/10/05 02:29:25;;;;;;;24.20;11.98;;;14.90;99.90;;;;;;5036435;28;20053;-66
2022/10/05 02:32:02;;;;;;;24.08;11.68;;;14.90;99.90;;;;;;5039791;28;20541;-65
2022/10/05 02:34:35;;;;;;;23.00;11.57;;;14.80;99.90;;;;;;5068797;28;20049;-66
2022/10/05 02:37:36;;;;;;;25.55;11.27;;;14.80;99.90;;;;;;5035184;28;20041;-66
2022/10/05 02:40:30;;;;;;;25.80;12.18;;;14.80;99.90;;;;;;5026404;28;20131;-66
2022/10/05 02:43:24;;;;;;;23.33;11.90;;;14.80;99.90;;;;;;5072907;28;20049;-65
2022/10/05 02:45:59;;;;;;;29.60;12.00;;;14.80;99.90;;;;;;5040343;28;20472;-65
2022/10/05 02:48:42;;;;;;;26.92;11.27;;;14.80;99.90;;;;;;5037580;28;20069;-66
2022/10/05 02:51:20;;;;;;;22.92;11.98;;;14.80;99.90;;;;;;5040523;28;20048;-66
2022/10/05 02:54:16;;;;;;;24.42;10.90;;;14.80;99.90;;;;;;5038271;28;20048;-66
2022/10/05 02:57:06;;;;;;;22.38;11.50;;;14.80;99.90;;;;;;5038206;28;20041;-66
2022/10/05 02:59:42;;;;;;;21.27;10.93;;;14.80;99.90;;;;;;5037316;28;20303;-65
2022/10/05 03:02:14;;;;;;;25.70;11.45;;;14.80;99.90;;;;;;5039437;28;20491;-66
2022/10/05 03:04:49;;;;;;;21.37;11.03;;;14.80;99.90;;;;;;5068679;28;20052;-65
2022/10/05 03:07:22;;;;;;;21.25;10.93;;;14.80;99.90;;;;;;5070876;28;20045;-65
2022/10/05 03:10:16;;;;;;;23.50;11.57;;;14.80;99.90;;;;;;5066354;28;20052;-65
2022/10/05 03:12:47;;;;;;;25.95;11.52;;;14.80;99.90;;;;;;5041140;28;20123;-65
2022/10/05 03:15:42;;;;;;;24.30;12.32;;;14.70;99.90;;;;;;5049024;28;20037;-65
2022/10/05 03:18:26;;;;;;;25.60;13.07;;;14.70;99.90;;;;;;5038548;28;20041;-65
2022/10/05 03:21:13;;;;;;;26.02;12.30;;;14.70;99.90;;;;;;5035740;28;20049;-66
2022/10/05 03:24:11;;;;;;;26.33;12.65;;;14.60;99.90;;;;;;5038479;28;20049;-66
2022/10/05 03:27:04;;;;;;;27.23;12.05;;;14.60;99.90;;;;;;5067580;28;20069;-65
2022/10/05 03:29:57;;;;;;;23.15;12.00;;;14.50;99.90;;;;;;5037752;28;20406;-66
2022/10/05 03:32:33;;;;;;;22.73;12.02;;;14.60;99.90;;;;;;5040478;28;20038;-65
2022/10/05 03:35:06;;;;;;;27.95;12.88;;;14.60;99.90;;;;;;5042305;28;20121;-66
2022/10/05 03:37:51;;;;;;;23.13;12.00;;;14.60;99.90;;;;;;5038879;28;20045;-66
2022/10/05 03:40:37;;;;;;;24.48;12.05;;;14.60;99.90;;;;;;5041525;28;20455;-66
2022/10/05 03:43:02;;;;;;;22.00;11.57;;;14.60;99.90;;;;;;5040241;28;20044;-67
2022/10/05 03:45:40;;;;;;;26.45;12.40;;;14.60;99.90;;;;;;5036279;28;20048;-65
2022/10/05 03:48:16;;;;;;;26.23;11.75;;;14.60;99.90;;;;;;5040609;28;20551;-66
2022/10/05 03:51:00;;;;;;;26.23;11.77;;;14.60;99.90;;;;;;5042418;28;20041;-65
2022/10/05 03:53:32;;;;;;;26.60;11.70;;;14.60;99.90;;;;;;5036211;28;20211;-66
2022/10/05 03:56:05;;;;;;;;;;;14.60;99.90;;;;;;5066246;28;20053;-65
2022/10/05 03:58:39;;;;;;;23.17;11.90;;;14.60;99.90;;;;;;5035844;28;19991;-65
2022/10/05 04:01:13;;;;;;;30.15;12.70;;;14.60;99.90;;;;;;5039417;28;20099;-66
2022/10/05 04:03:44;;;;;;;22.98;11.98;;;14.60;99.90;;;;;;5039140;28;20083;-64
2022/10/05 04:06:25;;;;;;;24.20;12.48;;;14.50;99.90;;;;;;5039206;28;20099;-65
2022/10/05 04:08:59;;;;;;;23.88;12.13;;;14.50;99.90;;;;;;5037168;28;20109;-65
2022/10/05 04:11:41;;;;;;;25.17;13.00;;;14.50;99.90;;;;;;5034771;28;20072;-65
2022/10/05 04:14:09;;;;;;;28.77;13.75;;;14.50;99.90;;;;;;5042609;28;20036;-65
2022/10/05 04:16:42;;;;;;;29.92;13.70;;;14.50;99.90;;;;;;5044507;28;20033;-65
2022/10/05 04:19:21;;;;;;;29.70;13.82;;;14.50;99.90;;;;;;5072239;28;20041;-66
2022/10/05 04:21:52;;;;;;;31.42;13.75;;;14.50;99.90;;;;;;5042868;28;20045;-67
2022/10/05 04:24:19;;;;;;;34.72;13.38;;;14.50;99.90;;;;;;5034267;28;20072;-66
2022/10/05 04:26:54;;;;;;;26.92;13.02;;;14.50;99.90;;;;;;5043143;28;20041;-65
2022/10/05 04:29:33;;;;;;;24.63;13.15;;;14.50;99.90;;;;;;5040136;28;20039;-65
2022/10/05 04:32:11;;;;;;;26.80;12.85;;;14.50;99.90;;;;;;5041385;28;20030;-66
2022/10/05 04:35:14;;;;;;;25.55;12.57;;;14.50;99.90;;;;;;5040326;28;20045;-67
2022/10/05 04:37:49;;;;;;;27.10;12.68;;;14.50;99.90;;;;;;5043146;28;20476;-66
2022/10/05 04:40:17;;;;;;;26.38;12.90;;;14.50;99.90;;;;;;5035746;28;20044;-68
2022/10/05 04:43:01;;;;;;;28.58;12.52;;;14.50;99.90;;;;;;5041284;28;20291;-67
2022/10/05 04:45:47;;;;;;;28.35;12.52;;;14.50;99.90;;;;;;5072665;28;20037;-67
2022/10/05 04:48:15;;;;;;;26.27;12.80;;;14.50;99.90;;;;;;5077951;28;20044;-66
2022/10/05 04:51:13;;;;;;;25.00;12.48;;;14.50;99.90;;;;;;5046311;28;20739;-65
2022/10/05 04:53:52;;;;;;;29.92;12.57;;;14.50;99.90;;;;;;5049245;28;20041;-65
2022/10/05 04:56:37;;;;;;;24.15;12.45;;;14.40;99.90;;;;;;5041168;28;20107;-65
2022/10/05 04:59:39;;;;;;;28.33;14.20;;;14.40;99.90;;;;;;5049261;28;20045;-65
2022/10/05 05:02:30;;;;;;;28.80;13.60;;;14.40;99.90;;;;;;5050504;28;20033;-65
2022/10/05 05:05:32;;;;;;;28.30;14.40;;;14.40;99.90;;;;;;5049683;28;20132;-65
2022/10/05 05:08:23;;;;;;;31.02;13.90;;;14.40;99.90;;;;;;5032693;28;20496;-65
2022/10/05 05:11:10;;;;;;;30.65;14.52;;;14.40;99.90;;;;;;5061595;28;20033;-66
2022/10/05 05:13:55;;;;;;;26.80;13.60;;;14.40;99.90;;;;;;5045593;28;20071;-66
2022/10/05 05:16:37;;;;;;;29.25;13.57;;;14.40;99.90;;;;;;5039486;28;20045;-66
2022/10/05 05:19:18;;;;;;;34.17;13.82;;;14.40;99.90;;;;;;5038823;28;20119;-65
2022/10/05 05:21:46;;;;;;;28.70;13.88;;;14.40;99.90;;;;;;5067314;28;20041;-66
2022/10/05 05:24:22;;;;;;;27.65;13.23;;;14.40;99.90;;;;;;5040769;28;20107;-66
2022/10/05 05:27:01;;;;;;;29.75;14.23;;;14.40;99.90;;;;;;5039227;28;20480;-66
2022/10/05 05:30:00;;;;;;;30.83;14.45;;;14.40;99.90;;;;;;5039403;28;20041;-67
2022/10/05 05:33:05;;;;;;;29.92;14.05;;;14.40;99.90;;;;;;5043577;28;20088;-66
2022/10/05 05:35:59;;;;;;;24.65;13.88;;;14.40;99.90;;;;;;5039167;28;20048;-67
2022/10/05 05:38:44;;;;;;;27.20;13.25;;;14.40;99.90;;;;;;5044534;28;20045;-66
2022/10/05 05:41:28;;;;;;;28.77;14.00;;;14.40;99.90;;;;;;5031552;28;20053;-66
2022/10/05 05:44:22;;;;;;;26.63;14.30;;;14.40;99.90;;;;;;5068553;28;20048;-65
2022/10/05 05:46:57;;;;;;;32.70;14.20;;;14.40;99.90;;;;;;5034952;28;20045;-66
2022/10/05 05:49:40;;;;;;;25.45;14.20;;;14.40;99.90;;;;;;5044742;28;20131;-65
2022/10/05 05:52:33;;;;;;;30.45;14.05;;;14.40;99.90;;;;;;5077502;28;20033;-66
2022/10/05 05:55:24;;;;;;;36.15;14.57;;;14.30;99.90;;;;;;5046486;28;20045;-66
2022/10/05 05:57:54;;;;;;;28.15;13.98;;;14.30;99.90;;;;;;5045840;28;20431;-65
2022/10/05 06:00:26;;;;;;;29.75;14.95;;;14.30;99.90;;;;;;5045130;28;20136;-66
2022/10/05 06:02:54;;;;;;;27.65;14.65;;;14.40;99.90;;;;;;5051685;28;20099;-67
2022/10/05 06:05:37;;;;;;;30.65;14.80;;;14.40;99.90;;;;;;5043616;28;20036;-66
2022/10/05 06:08:14;;;;;;;30.50;14.82;;;14.40;99.90;;;;;;5033942;28;20071;-65
2022/10/05 06:10:57;;;;;;;26.75;14.50;;;14.40;99.90;;;;;;5052495;28;20067;-66
2022/10/05 06:13:34;;;;;;;25.98;13.88;;;14.40;99.90;;;;;;5051533;28;20037;-67
2022/10/05 06:16:10;;;;;;;27.13;14.05;;;14.40;99.90;;;;;;5051869;28;20045;-66
2022/10/05 06:18:39;;;;;;;26.15;13.10;;;14.50;99.90;;;;;;5052557;28;20527;-66
2022/10/05 06:21:34;;;;;;;28.33;13.38;;;14.40;99.90;;;;;;5051731;28;20118;-67
2022/10/05 06:24:03;;;;;;;24.55;12.35;;;14.50;99.90;;;;;;5042681;28;20045;-66
2022/10/05 06:26:38;;;;;;;25.90;13.30;;;14.50;99.90;;;;;;5050736;28;20057;-68
2022/10/05 06:29:10;;;;;;;22.25;12.43;;;14.50;99.90;;;;;;5051642;28;20047;-67
2022/10/05 06:31:51;;;;;;;22.40;13.07;;;14.60;99.90;;;;;;5031622;28;20515;-68
2022/10/05 06:34:25;;;;;;;24.83;13.25;;;14.60;99.90;;;;;;5032689;28;20092;-67
2022/10/05 06:36:58;;;;;;;27.38;12.48;;;14.60;99.90;;;;;;5040896;28;20033;-68
2022/10/05 06:39:46;;;;;;;21.45;13.00;;;14.60;99.90;;;;;;5051957;28;20037;-66
2022/10/05 06:42:25;;;;;;;21.50;12.65;;;14.60;99.90;;;;;;5030962;28;20124;-68
2022/10/05 06:45:21;;;;;;;23.40;12.82;;;14.60;99.90;;;;;;5031246;28;20064;-68
2022/10/05 06:47:57;;;;;;;23.23;12.38;;;14.60;99.90;;;;;;5042272;28;20045;-67
2022/10/05 06:50:34;;;;;;;21.48;11.93;;;14.70;99.90;;;;;;5051729;28;20083;-69
2022/10/05 06:53:18;;;;;;;23.90;11.55;;;14.60;99.90;;;;;;5047938;28;20041;-70
2022/10/05 06:55:58;;;;;;;20.98;12.25;;;14.60;99.90;;;;;;5046718;28;20081;-70
2022/10/05 06:58:33;;;;;;;23.20;11.90;;;14.70;99.90;;;;;;5045623;28;20036;-68
2022/10/05 07:01:09;;;;;;;19.98;11.48;;;14.70;99.90;;;;;;5049075;28;20277;-70
2022/10/05 07:03:57;;;;;;;21.27;11.68;;;14.70;99.90;;;;;;5049624;28;20048;-69
2022/10/05 07:06:34;;;;;;;16.88;10.63;;;14.70;99.90;;;;;;5040076;28;20041;-68
2022/10/05 07:09:14;;;;;;;20.00;10.70;;;14.70;99.90;;;;;;5046775;28;20041;-69
2022/10/05 07:11:56;;;;;;;17.30;10.65;;;14.80;99.90;;;;;;5043011;28;20053;-68
2022/10/05 07:14:49;;;;;;;17.25;10.15;;;14.70;99.90;;;;;;5043769;28;20488;-68
2022/10/05 07:17:29;;;;;;;17.88;9.82;;;14.80;99.90;;;;;;5047461;28;20037;-69
2022/10/05 07:20:13;;;;;;;15.90;9.75;;;14.80;99.90;;;;;;5050390;28;20484;-68
2022/10/05 07:23:02;;;;;;;16.33;9.55;;;14.80;99.90;;;;;;5049753;28;20037;-68
2022/10/05 07:25:46;;;;;;;21.45;10.95;;;14.90;99.90;;;;;;5042531;28;20063;-69
2022/10/05 07:28:20;;;;;;;14.70;9.30;;;14.90;99.90;;;;;;5042512;28;20050;-67
2022/10/05 07:31:10;;;;;;;18.52;9.48;;;14.90;99.90;;;;;;5043005;28;20499;-67
2022/10/05 07:33:54;;;;;;;19.80;10.10;;;14.90;99.90;;;;;;5047337;28;20036;-68
2022/10/05 07:39:32;;;;;;;21.42;11.43;;;15.00;99.90;;;;;;5029925;28;20133;-68
2022/10/05 07:42:26;;;;;;;24.40;12.63;;;15.00;99.90;;;;;;5062525;28;20047;-67
2022/10/05 07:45:15;;;;;;;24.48;12.63;;;15.00;99.90;;;;;;5064588;28;20030;-67
2022/10/05 07:47:57;;;;;;;23.38;13.15;;;15.00;99.90;;;;;;5069741;28;20053;-67
2022/10/05 07:50:35;;;;;;;25.10;13.05;;;15.00;99.90;;;;;;5030067;28;20049;-68
2022/10/05 07:53:12;;;;;;;24.60;13.00;;;15.00;99.90;;;;;;5028389;28;20037;-68
2022/10/05 07:55:46;;;;;;;23.90;13.18;;;15.00;99.90;;;;;;5029775;28;20124;-68
2022/10/05 07:58:26;;;;;;;25.38;13.80;;;15.10;99.90;;;;;;5039984;28;20047;-69
2022/10/05 08:01:23;;;;;;;24.05;13.07;;;15.10;99.90;;;;;;5044432;28;20492;-68
2022/10/05 08:03:57;;;;;;;22.70;12.88;;;15.10;99.90;;;;;;5047109;28;20044;-68
2022/10/05 08:06:47;;;;;;;24.65;12.75;;;15.10;99.90;;;;;;5044361;28;20082;-67
2022/10/05 08:09:28;;;;;;;24.35;12.85;;;15.10;99.90;;;;;;5049333;28;20033;-68
2022/10/05 08:12:22;;;;;;;26.38;12.70;;;15.20;99.90;;;;;;5046788;28;20559;-67
2022/10/05 08:15:01;;;;;;;23.05;12.70;;;15.20;99.90;;;;;;5043711;28;20120;-69
2022/10/05 08:17:59;;;;;;;24.33;12.80;;;15.20;99.90;;;;;;5031163;28;20399;-69
2022/10/05 08:20:34;;;;;;;24.60;13.13;;;15.30;99.90;;;;;;5042223;28;20574;-67
2022/10/05 08:23:24;;;;;;;21.27;12.63;;;15.30;99.90;;;;;;5073344;28;20044;-68
2022/10/05 08:25:50;;;;;;;21.02;12.98;;;15.30;99.90;;;;;;5044178;28;20307;-68
2022/10/05 08:28:33;;;;;;;24.25;12.63;;;15.40;99.90;;;;;;5036576;28;20531;-69
2022/10/05 08:31:28;;;;;;;26.40;12.52;;;15.40;99.90;;;;;;5041414;28;20037;-68
2022/10/05 08:34:19;;;;;;;20.63;11.85;;;15.40;99.90;;;;;;5050187;28;21110;-67
2022/10/05 08:36:59;;;;;;;19.75;12.20;;;15.50;99.90;;;;;;5055165;28;20051;-68
2022/10/05 08:39:34;;;;;;;19.85;12.23;;;15.60;99.90;;;;;;5047660;28;20057;-68
2022/10/05 08:42:39;;;;;;;21.98;12.30;;;15.60;99.90;;;;;;5048072;28;20079;-71
2022/10/05 08:45:15;;;;;;;20.38;11.80;;;15.60;99.90;;;;;;5047870;28;20049;-68
2022/10/05 08:48:02;;;;;;;20.02;11.50;;;15.60;99.90;;;;;;5045670;28;20079;-69
2022/10/05 08:51:14;;;;;;;21.50;11.38;;;15.60;99.90;;;;;;5065432;28;20492;-69
2022/10/05 08:54:06;;;;;;;16.95;10.68;;;15.60;99.90;;;;;;5045549;28;20057;-68
2022/10/05 08:56:41;;;;;;;20.15;11.35;;;15.70;99.90;;;;;;5045112;28;20060;-69
2022/10/05 08:59:34;;;;;;;18.48;10.85;;;15.70;99.90;;;;;;5038701;28;20407;-69
2022/10/05 09:02:11;;;;;;;;;;;15.70;99.90;;;;;;5049090;28;20041;-69
2022/10/05 09:04:40;;;;;;;14.73;9.05;;;15.70;99.90;;;;;;5038110;28;20339;-68
2022/10/05 09:07:28;;;;;;;14.05;8.98;;;15.80;99.90;;;;;;5040824;28;20041;-69
2022/10/05 09:10:03;;;;;;;13.25;8.30;;;15.80;99.90;;;;;;5037208;28;20053;-71
2022/10/05 09:12:39;;;;;;;15.45;8.55;;;15.80;99.90;;;;;;5029933;28;20053;-69
2022/10/05 09:15:44;;;;;;;19.38;8.85;;;15.80;99.90;;;;;;5045540;28;20041;-71
2022/10/05 09:18:29;;;;;;;13.48;8.30;;;15.90;99.90;;;;;;5057585;28;20029;-69
2022/10/05 09:21:30;;;;;;;12.95;8.20;;;15.90;99.90;;;;;;5047486;28;20040;-70
2022/10/05 09:24:26;;;;;;;13.15;8.48;;;15.90;99.90;;;;;;5065608;28;20041;-70
2022/10/05 09:27:16;;;;;;;13.48;8.40;;;16.00;99.90;;;;;;5072751;28;20060;-69
2022/10/05 09:30:10;;;;;;;11.90;8.60;;;15.90;99.90;;;;;;5047205;28;20047;-68
2022/10/05 09:32:57;;;;;;;14.32;8.90;;;16.00;99.90;;;;;;5047790;28;20033;-68
2022/10/05 09:35:41;;;;;;;14.23;8.98;;;16.00;99.90;;;;;;5041833;28;20036;-70
2022/10/05 09:38:26;;;;;;;13.65;9.10;;;16.00;99.90;;;;;;5047729;28;20053;-70
2022/10/05 09:41:17;;;;;;;14.27;9.43;;;16.10;99.90;;;;;;5051904;28;20057;-69
2022/10/05 09:44:04;;;;;;;13.52;9.32;;;16.00;99.90;;;;;;5052552;28;20052;-69
2022/10/05 09:47:04;;;;;;;16.35;9.93;;;16.10;99.90;;;;;;5033974;28;20106;-70
2022/10/05 09:49:48;;;;;;;15.25;9.63;;;16.00;99.90;;;;;;4972502;28;20053;-71
2022/10/05 09:52:41;;;;;;;16.45;10.35;;;16.00;99.90;;;;;;5031924;28;20053;-71
2022/10/05 09:55:48;;;;;;;16.83;9.95;;;16.00;99.90;;;;;;5032413;28;20491;-68
2022/10/05 09:58:21;;;;;;;13.80;9.65;;;16.00;99.90;;;;;;5034735;28;20172;-70
2022/10/05 10:01:28;;;;;;;18.05;9.88;;;16.00;99.90;;;;;;5050719;28;20037;-69
2022/10/05 10:04:10;;;;;;;15.57;9.75;;;16.00;99.90;;;;;;5032055;28;20511;-69
2022/10/05 10:06:58;;;;;;;15.68;9.57;;;16.00;99.90;;;;;;5032532;28;20045;-69
2022/10/05 10:09:56;;;;;;;17.15;9.93;;;15.90;99.90;;;;;;5046793;28;20064;-70
2022/10/05 10:12:26;;;;;;;17.15;10.65;;;15.90;99.90;;;;;;5084899;28;20040;-70
2022/10/05 10:15:25;;;;;;;17.40;9.93;;;15.90;99.90;;;;;;5041028;28;20037;-69
2022/10/05 10:18:10;;;;;;;18.75;11.80;;;16.00;99.90;;;;;;5031374;28;20403;-65
2022/10/05 10:20:53;;;;;;;18.88;11.40;;;15.90;99.90;;;;;;5031475;28;20094;-68
2022/10/05 10:23:47;;;;;;;18.85;11.15;;;15.90;99.90;;;;;;5043252;28;20045;-71
2022/10/05 10:26:35;;;;;;;16.52;11.07;;;16.00;99.90;;;;;;5043999;28;20127;-70
2022/10/05 10:29:15;;;;;;;14.27;10.95;;;16.00;99.90;;;;;;5051659;28;20060;-71
2022/10/05 10:31:54;;;;;;;14.48;11.02;;;16.00;99.90;;;;;;5048471;28;20029;-68
2022/10/05 10:34:20;;;;;;;15.65;10.82;;;16.00;99.90;;;;;;5046364;28;20045;-70
2022/10/05 10:37:35;;;;;;;15.43;11.20;;;16.10;99.90;;;;;;5046160;28;20036;-71
2022/10/05 10:40:33;;;;;;;19.60;11.35;;;16.10;99.90;;;;;;5018684;28;20258;-69
2022/10/05 10:43:14;;;;;;;19.73;11.38;;;16.20;99.90;;;;;;5075331;28;20049;-68
2022/10/05 10:46:04;;;;;;;23.25;10.73;;;16.20;99.90;;;;;;5051481;28;20111;-66
2022/10/05 10:48:29;;;;;;;19.77;10.57;;;16.30;99.90;;;;;;5048788;28;20041;-66
2022/10/05 10:51:24;;;;;;;13.32;10.25;;;16.30;99.90;;;;;;5045781;28;20043;-66
2022/10/05 10:54:11;;;;;;;16.05;11.27;;;16.40;99.90;;;;;;5038843;28;20037;-68
2022/10/05 10:56:57;;;;;;;16.70;11.90;;;16.40;99.90;;;;;;5032159;28;20160;-69
2022/10/05 10:59:47;;;;;;;23.80;14.00;;;16.40;99.90;;;;;;5044258;28;20120;-68
2022/10/05 11:02:31;;;;;;;20.90;13.55;;;16.50;99.90;;;;;;5043045;28;20044;-66
2022/10/05 11:05:03;;;;;;;22.73;13.45;;;16.50;99.90;;;;;;5050538;28;20051;-66
2022/10/05 11:07:43;;;;;;;20.38;12.77;;;16.50;99.90;;;;;;5050667;28;20049;-70
2022/10/05 11:10:28;;;;;;;18.27;12.60;;;16.60;99.90;;;;;;5044550;28;20037;-66
2022/10/05 11:13:15;;;;;;;13.38;10.48;;;16.60;99.90;;;;;;5050419;28;20076;-70
2022/10/05 11:15:47;;;;;;;17.88;9.70;;;16.70;99.90;;;;;;5048106;28;20041;-68
2022/10/05 11:18:47;;;;;;;17.20;9.40;;;16.70;99.90;;;;;;5042794;28;20040;-67
2022/10/05 11:21:38;;;;;;;15.65;8.95;;;16.70;99.90;;;;;;5009256;28;20749;-65
2022/10/05 11:24:38;;;;;;;15.20;8.73;;;16.70;99.90;;;;;;5035002;28;20045;-70
2022/10/05 11:27:23;;;;;;;14.05;8.88;;;16.80;99.90;;;;;;5033992;28;20056;-67
2022/10/05 11:30:12;;;;;;;16.67;8.10;;;16.70;99.90;;;;;;5030754;28;20142;-71
2022/10/05 11:33:16;;;;;;;18.27;8.32;;;16.70;99.90;;;;;;5048371;28;20044;-67
2022/10/05 11:36:09;;;;;;;18.55;8.98;;;16.70;99.90;;;;;;5034197;28;20044;-69
2022/10/05 11:39:14;;;;;;;17.90;8.65;;;16.60;99.90;;;;;;5043883;28;20041;-68
2022/10/05 11:42:01;;;;;;;14.23;8.20;;;16.60;99.90;;;;;;5079018;28;20055;-67
2022/10/05 11:44:45;;;;;;;17.63;9.60;;;16.60;99.90;;;;;;5044161;28;20034;-66
2022/10/05 11:47:58;;;;;;;15.25;9.43;;;16.50;99.90;;;;;;5082111;28;20037;-68
2022/10/05 11:50:45;;;;;;;17.55;10.32;;;16.50;99.90;;;;;;5031199;28;20041;-70
2022/10/05 11:53:57;;;;;;;14.52;9.60;;;16.50;99.90;;;;;;5026276;28;20044;-64
2022/10/05 11:56:37;;;;;;;17.60;10.48;;;16.50;99.90;;;;;;5042902;28;20091;-70
2022/10/05 11:59:18;;;;;;;17.83;10.73;;;16.50;99.90;;;;;;5049728;28;20053;-66
2022/10/05 12:02:04;;;;;;;17.42;10.63;;;16.50;99.90;;;;;;5030531;28;20033;-67
2022/10/05 12:04:40;;;;;;;18.75;11.07;;;16.40;99.90;;;;;;5058843;28;20458;-67
2022/10/05 12:07:11;;;;;;;19.42;11.07;;;16.50;99.90;;;;;;5034973;28;20065;-68
2022/10/05 12:10:12;;;;;;;14.68;10.68;;;16.40;99.90;;;;;;5048248;28;20090;-66
2022/10/05 12:12:35;;;;;;;18.27;11.02;;;16.30;99.90;;;;;;5048272;28;20037;-70
2022/10/05 12:15:06;;;;;;;19.35;10.65;;;16.40;99.90;;;;;;5049595;28;20049;-67
2022/10/05 12:17:42;;;;;;;16.27;10.63;;;16.40;99.90;;;;;;5029157;28;20118;-71
2022/10/05 12:20:20;;;;;;;20.10;11.82;;;16.40;99.90;;;;;;5070235;28;20062;-69
2022/10/05 12:23:04;;;;;;;15.73;11.13;;;16.40;99.90;;;;;;5044032;28;20480;-71
2022/10/05 12:25:33;;;;;;;19.25;13.02;;;16.50;99.90;;;;;;5044568;28;20041;-69
2022/10/05 12:28:07;;;;;;;20.75;12.65;;;16.50;99.90;;;;;;5048403;28;20496;-72
2022/10/05 12:30:51;;;;;;;19.23;12.35;;;16.50;99.90;;;;;;5055350;28;20033;-71
2022/10/05 12:33:25;;;;;;;19.70;13.10;;;16.50;99.90;;;;;;5042424;28;20037;-71
2022/10/05 12:36:06;;;;;;;21.02;13.13;;;16.50;99.90;;;;;;5040402;28;20045;-70
2022/10/05 12:39:07;;;;;;;19.45;13.15;;;16.50;99.90;;;;;;5048374;28;20902;-68
2022/10/05 12:42:10;;;;;;;21.88;13.60;;;16.60;99.90;;;;;;5027657;28;20124;-70
2022/10/05 12:44:40;;;;;;;20.40;13.98;;;16.60;99.90;;;;;;5024051;28;20491;-71
2022/10/05 12:47:24;;;;;;;20.00;13.68;;;16.60;99.90;;;;;;5028063;28;20056;-69
2022/10/05 12:50:08;;;;;;;21.70;12.77;;;16.60;99.90;;;;;;5047465;28;20040;-69
2022/10/05 12:52:54;;;;;;;21.75;13.15;;;16.70;99.90;;;;;;5027303;28;20511;-72
2022/10/05 12:56:07;;;;;;;18.13;12.30;;;16.70;99.90;;;;;;5045746;28;20041;-72
2022/10/05 12:58:42;;;;;;;15.98;11.35;;;16.80;99.90;;;;;;5035281;28;20132;-70
2022/10/05 13:01:30;;;;;;;21.42;12.57;;;16.80;99.90;;;;;;5048211;28;20441;-70
2022/10/05 13:04:27;;;;;;;18.30;12.55;;;16.80;99.90;;;;;;5047050;28;20040;-69
2022/10/05 13:07:03;;;;;;;19.70;11.70;;;16.90;99.90;;;;;;5032830;28;20049;-70
2022/10/05 13:10:01;;;;;;;18.52;12.15;;;16.90;99.90;;;;;;5039929;28;21379;-67
2022/10/05 13:12:48;;;;;;;18.30;11.10;;;16.80;99.90;;;;;;5046249;28;20087;-67
2022/10/05 13:15:28;;;;;;;18.13;11.73;;;16.80;99.90;;;;;;5047556;28;20032;-69
2022/10/05 13:18:05;;;;;;;17.90;11.02;;;16.90;99.90;;;;;;5036125;28;20412;-71
2022/10/05 13:20:43;;;;;;;15.75;10.73;;;16.90;99.90;;;;;;5033987;28;20029;-68
2022/10/05 13:23:27;;;;;;;14.38;10.45;;;17.00;99.90;;;;;;5053876;28;20041;-68
2022/10/05 13:26:01;;;;;;;18.15;10.52;;;17.10;99.90;;;;;;5052449;28;20044;-69
2022/10/05 13:28:49;;;;;;;16.95;11.73;;;17.10;99.90;;;;;;5037217;28;20045;-68
2022/10/05 13:31:45;;;;;;;18.52;11.73;;;17.20;99.90;;;;;;5039492;28;20033;-68
2022/10/05 13:34:21;;;;;;;19.60;12.18;;;17.20;99.90;;;;;;5047982;28;20041;-68
2022/10/05 13:36:53;;;;;;;17.38;11.68;;;17.30;99.90;;;;;;5041417;28;20045;-69
2022/10/05 13:39:46;;;;;;;17.05;11.23;;;17.30;99.90;;;;;;5053016;28;20041;-67
2022/10/05 13:42:18;;;;;;;15.43;11.43;;;17.30;99.90;;;;;;5044089;28;20065;-68
2022/10/05 13:44:52;;;;;;;17.10;11.48;;;17.30;99.90;;;;;;5028614;28;20048;-68
2022/10/05 13:47:40;;;;;;;15.80;11.15;;;17.40;99.90;;;;;;5050259;28;20045;-72
2022/10/05 13:50:20;;;;;;;17.23;11.90;;;17.40;99.90;;;;;;5037396;28;20496;-70
2022/10/05 13:53:01;;;;;;;14.38;10.65;;;17.40;99.90;;;;;;5044383;28;20112;-66